sensor_id;sensor_type;location;lat;lon;timestamp;P1;durP1;ratioP1;P2;durP2;ratioP2
35306;SDS011;21420;52.196;21.416;2023-02-19T00:01:49;7.30;;;4.80;;
35306;SDS011;21420;52.196;21.416;2023-02-19T00:04:15;7.40;;;4.40;;
35306;SDS011;21420;52.196;21.416;2023-02-19T00:06:48;7.70;;;4.60;;
35306;SDS011;21420;52.196;21.416;2023-02-19T00:09:16;9.40;;;5.00;;
35306;SDS011;21420;52.196;21.416;2023-02-19T00:11:45;6.60;;;4.60;;
35306;SDS011;21420;52.196;21.416;2023-02-19T00:14:14;8.90;;;4.60;;
35306;SDS011;21420;52.196;21.416;2023-02-19T00:16:43;7.90;;;4.60;;
35306;SDS011;21420;52.196;21.416;2023-02-19T00:19:12;9.90;;;5.50;;
35306;SDS011;21420;52.196;21.416;2023-02-19T00:21:41;8.70;;;5.20;;
35306;SDS011;21420;52.196;21.416;2023-02-19T00:24:10;9.10;;;4.70;;
35306;SDS011;21420;52.196;21.416;2023-02-19T00:26:39;7.50;;;4.80;;
35306;SDS011;21420;52.196;21.416;2023-02-19T00:29:08;9.30;;;5.10;;
35306;SDS011;21420;52.196;21.416;2023-02-19T00:31:40;8.50;;;4.90;;
35306;SDS011;21420;52.196;21.416;2023-02-19T00:34:07;11.20;;;5.20;;
35306;SDS011;21420;52.196;21.416;2023-02-19T00:36:36;6.60;;;4.20;;
35306;SDS011;21420;52.196;21.416;2023-02-19T00:39:05;10.30;;;4.90;;
35306;SDS011;21420;52.196;21.416;2023-02-19T00:41:33;11.50;;;5.30;;
35306;SDS011;21420;52.196;21.416;2023-02-19T00:44:04;10.90;;;5.50;;
35306;SDS011;21420;52.196;21.416;2023-02-19T00:49:02;8.90;;;4.10;;
35306;SDS011;21420;52.196;21.416;2023-02-19T00:51:31;11.70;;;5.00;;
35306;SDS011;21420;52.196;21.416;2023-02-19T00:54:03;7.00;;;4.00;;
35306;SDS011;21420;52.196;21.416;2023-02-19T00:56:31;11.60;;;4.20;;
35306;SDS011;21420;52.196;21.416;2023-02-19T00:58:59;9.30;;;3.70;;
35306;SDS011;21420;52.196;21.416;2023-02-19T01:01:26;7.60;;;4.20;;
35306;SDS011;21420;52.196;21.416;2023-02-19T01:03:53;7.90;;;3.70;;
35306;SDS011;21420;52.196;21.416;2023-02-19T01:06:20;7.50;;;3.80;;
35306;SDS011;21420;52.196;21.416;2023-02-19T01:08:47;8.90;;;4.20;;
35306;SDS011;21420;52.196;21.416;2023-02-19T01:11:15;8.80;;;4.10;;
35306;SDS011;21420;52.196;21.416;2023-02-19T01:13:43;6.60;;;3.90;;
35306;SDS011;21420;52.196;21.416;2023-02-19T01:16:17;7.90;;;3.30;;
35306;SDS011;21420;52.196;21.416;2023-02-19T01:18:47;10.20;;;4.40;;
35306;SDS011;21420;52.196;21.416;2023-02-19T01:21:17;10.90;;;4.20;;
35306;SDS011;21420;52.196;21.416;2023-02-19T01:23:52;8.20;;;3.40;;
35306;SDS011;21420;52.196;21.416;2023-02-19T01:26:25;10.30;;;3.50;;
35306;SDS011;21420;52.196;21.416;2023-02-19T01:31:21;8.80;;;3.30;;
35306;SDS011;21420;52.196;21.416;2023-02-19T01:33:51;10.10;;;4.20;;
35306;SDS011;21420;52.196;21.416;2023-02-19T01:36:20;11.70;;;4.60;;
35306;SDS011;21420;52.196;21.416;2023-02-19T01:38:47;8.40;;;4.00;;
35306;SDS011;21420;52.196;21.416;2023-02-19T01:41:16;11.50;;;4.80;;
35306;SDS011;21420;52.196;21.416;2023-02-19T01:46:39;10.60;;;4.30;;
35306;SDS011;21420;52.196;21.416;2023-02-19T01:49:42;8.90;;;3.70;;
35306;SDS011;21420;52.196;21.416;2023-02-19T01:52:11;10.20;;;4.00;;
35306;SDS011;21420;52.196;21.416;2023-02-19T01:54:52;11.40;;;3.90;;
35306;SDS011;21420;52.196;21.416;2023-02-19T01:57:25;11.20;;;4.10;;
35306;SDS011;21420;52.196;21.416;2023-02-19T01:59:57;9.70;;;4.20;;
35306;SDS011;21420;52.196;21.416;2023-02-19T02:02:38;9.30;;;4.00;;
35306;SDS011;21420;52.196;21.416;2023-02-19T02:05:13;5.80;;;3.20;;
35306;SDS011;21420;52.196;21.416;2023-02-19T02:07:48;6.20;;;3.40;;
35306;SDS011;21420;52.196;21.416;2023-02-19T02:10:34;9.80;;;3.90;;
35306;SDS011;21420;52.196;21.416;2023-02-19T02:13:02;7.50;;;3.40;;
35306;SDS011;21420;52.196;21.416;2023-02-19T02:15:34;7.40;;;3.10;;
35306;SDS011;21420;52.196;21.416;2023-02-19T02:28:52;7.20;;;4.20;;
35306;SDS011;21420;52.196;21.416;2023-02-19T02:31:32;8.80;;;3.60;;
35306;SDS011;21420;52.196;21.416;2023-02-19T02:34:11;8.40;;;3.70;;
35306;SDS011;21420;52.196;21.416;2023-02-19T02:36:49;7.80;;;3.40;;
35306;SDS011;21420;52.196;21.416;2023-02-19T02:39:21;8.90;;;3.70;;
35306;SDS011;21420;52.196;21.416;2023-02-19T02:41:54;8.80;;;3.80;;
35306;SDS011;21420;52.196;21.416;2023-02-19T02:44:42;9.70;;;4.30;;
35306;SDS011;21420;52.196;21.416;2023-02-19T02:47:30;7.60;;;3.50;;
35306;SDS011;21420;52.196;21.416;2023-02-19T02:50:15;9.20;;;4.10;;
35306;SDS011;21420;52.196;21.416;2023-02-19T02:52:48;7.30;;;4.30;;
35306;SDS011;21420;52.196;21.416;2023-02-19T02:55:40;8.30;;;4.00;;
35306;SDS011;21420;52.196;21.416;2023-02-19T02:58:10;14.70;;;4.20;;
35306;SDS011;21420;52.196;21.416;2023-02-19T03:00:39;9.00;;;4.00;;
35306;SDS011;21420;52.196;21.416;2023-02-19T03:03:30;9.90;;;4.20;;
35306;SDS011;21420;52.196;21.416;2023-02-19T03:05:59;10.40;;;4.80;;
35306;SDS011;21420;52.196;21.416;2023-02-19T03:08:44;10.60;;;4.90;;
35306;SDS011;21420;52.196;21.416;2023-02-19T03:11:18;11.40;;;4.80;;
35306;SDS011;21420;52.196;21.416;2023-02-19T03:14:14;8.10;;;4.80;;
35306;SDS011;21420;52.196;21.416;2023-02-19T03:19:35;11.30;;;4.80;;
35306;SDS011;21420;52.196;21.416;2023-02-19T03:22:11;10.60;;;4.60;;
35306;SDS011;21420;52.196;21.416;2023-02-19T03:24:44;12.30;;;5.20;;
35306;SDS011;21420;52.196;21.416;2023-02-19T03:27:36;10.00;;;5.40;;
35306;SDS011;21420;52.196;21.416;2023-02-19T03:30:08;11.70;;;4.90;;
35306;SDS011;21420;52.196;21.416;2023-02-19T03:32:46;9.60;;;4.80;;
35306;SDS011;21420;52.196;21.416;2023-02-19T03:35:20;12.40;;;5.30;;
35306;SDS011;21420;52.196;21.416;2023-02-19T03:40:43;9.70;;;5.10;;
35306;SDS011;21420;52.196;21.416;2023-02-19T03:43:20;11.00;;;4.60;;
35306;SDS011;21420;52.196;21.416;2023-02-19T03:49:03;12.10;;;5.80;;
35306;SDS011;21420;52.196;21.416;2023-02-19T03:51:40;9.60;;;4.90;;
35306;SDS011;21420;52.196;21.416;2023-02-19T03:54:12;9.60;;;4.90;;
35306;SDS011;21420;52.196;21.416;2023-02-19T03:56:55;11.60;;;4.50;;
35306;SDS011;21420;52.196;21.416;2023-02-19T03:59:31;8.90;;;4.50;;
35306;SDS011;21420;52.196;21.416;2023-02-19T04:02:27;8.30;;;4.10;;
35306;SDS011;21420;52.196;21.416;2023-02-19T04:07:38;8.40;;;4.00;;
35306;SDS011;21420;52.196;21.416;2023-02-19T04:10:10;11.30;;;3.80;;
35306;SDS011;21420;52.196;21.416;2023-02-19T04:12:43;13.60;;;5.50;;
35306;SDS011;21420;52.196;21.416;2023-02-19T04:15:16;8.60;;;4.00;;
35306;SDS011;21420;52.196;21.416;2023-02-19T04:17:53;7.90;;;3.90;;
35306;SDS011;21420;52.196;21.416;2023-02-19T04:20:24;10.00;;;3.80;;
35306;SDS011;21420;52.196;21.416;2023-02-19T04:22:55;11.30;;;4.00;;
35306;SDS011;21420;52.196;21.416;2023-02-19T04:25:23;10.70;;;3.80;;
35306;SDS011;21420;52.196;21.416;2023-02-19T04:27:52;6.20;;;3.50;;
35306;SDS011;21420;52.196;21.416;2023-02-19T04:30:20;8.90;;;3.40;;
35306;SDS011;21420;52.196;21.416;2023-02-19T04:32:47;8.20;;;3.90;;
35306;SDS011;21420;52.196;21.416;2023-02-19T04:35:14;7.80;;;3.60;;
35306;SDS011;21420;52.196;21.416;2023-02-19T04:37:41;12.10;;;4.10;;
35306;SDS011;21420;52.196;21.416;2023-02-19T04:40:09;7.50;;;4.00;;
35306;SDS011;21420;52.196;21.416;2023-02-19T04:42:36;11.10;;;3.80;;
35306;SDS011;21420;52.196;21.416;2023-02-19T04:45:03;11.40;;;3.40;;
35306;SDS011;21420;52.196;21.416;2023-02-19T04:47:30;9.70;;;3.80;;
35306;SDS011;21420;52.196;21.416;2023-02-19T04:49:58;18.70;;;3.80;;
35306;SDS011;21420;52.196;21.416;2023-02-19T04:52:25;14.00;;;3.90;;
35306;SDS011;21420;52.196;21.416;2023-02-19T04:54:52;8.70;;;3.90;;
35306;SDS011;21420;52.196;21.416;2023-02-19T04:57:19;10.30;;;3.80;;
35306;SDS011;21420;52.196;21.416;2023-02-19T04:59:46;9.20;;;2.90;;
35306;SDS011;21420;52.196;21.416;2023-02-19T05:02:13;8.50;;;3.30;;
35306;SDS011;21420;52.196;21.416;2023-02-19T05:04:40;10.20;;;3.30;;
35306;SDS011;21420;52.196;21.416;2023-02-19T05:07:07;8.20;;;3.20;;
35306;SDS011;21420;52.196;21.416;2023-02-19T05:09:34;8.40;;;3.40;;
35306;SDS011;21420;52.196;21.416;2023-02-19T05:12:01;7.30;;;3.20;;
35306;SDS011;21420;52.196;21.416;2023-02-19T05:14:28;14.00;;;4.00;;
35306;SDS011;21420;52.196;21.416;2023-02-19T05:16:54;6.30;;;3.10;;
35306;SDS011;21420;52.196;21.416;2023-02-19T05:19:21;10.80;;;3.50;;
35306;SDS011;21420;52.196;21.416;2023-02-19T05:21:48;7.40;;;3.10;;
35306;SDS011;21420;52.196;21.416;2023-02-19T05:24:15;11.40;;;3.80;;
35306;SDS011;21420;52.196;21.416;2023-02-19T05:26:42;15.00;;;5.10;;
35306;SDS011;21420;52.196;21.416;2023-02-19T05:29:10;12.20;;;3.90;;
35306;SDS011;21420;52.196;21.416;2023-02-19T05:31:37;8.60;;;3.20;;
35306;SDS011;21420;52.196;21.416;2023-02-19T05:34:04;9.40;;;3.50;;
35306;SDS011;21420;52.196;21.416;2023-02-19T05:36:32;11.70;;;3.60;;
35306;SDS011;21420;52.196;21.416;2023-02-19T05:38:59;11.90;;;3.90;;
35306;SDS011;21420;52.196;21.416;2023-02-19T05:41:26;13.10;;;3.90;;
35306;SDS011;21420;52.196;21.416;2023-02-19T05:43:55;9.40;;;4.30;;
35306;SDS011;21420;52.196;21.416;2023-02-19T05:46:24;10.20;;;3.50;;
35306;SDS011;21420;52.196;21.416;2023-02-19T05:48:54;11.00;;;4.00;;
35306;SDS011;21420;52.196;21.416;2023-02-19T05:51:22;10.90;;;4.10;;
35306;SDS011;21420;52.196;21.416;2023-02-19T05:53:51;12.00;;;3.90;;
35306;SDS011;21420;52.196;21.416;2023-02-19T05:56:37;11.80;;;3.80;;
35306;SDS011;21420;52.196;21.416;2023-02-19T05:59:07;11.10;;;4.20;;
35306;SDS011;21420;52.196;21.416;2023-02-19T06:01:45;9.10;;;4.10;;
35306;SDS011;21420;52.196;21.416;2023-02-19T06:04:13;14.70;;;5.30;;
35306;SDS011;21420;52.196;21.416;2023-02-19T06:06:41;13.40;;;4.10;;
35306;SDS011;21420;52.196;21.416;2023-02-19T06:09:08;8.00;;;3.80;;
35306;SDS011;21420;52.196;21.416;2023-02-19T06:11:36;10.60;;;4.30;;
35306;SDS011;21420;52.196;21.416;2023-02-19T06:14:04;9.40;;;3.60;;
35306;SDS011;21420;52.196;21.416;2023-02-19T06:16:31;10.40;;;4.00;;
35306;SDS011;21420;52.196;21.416;2023-02-19T06:19:03;6.10;;;4.20;;
35306;SDS011;21420;52.196;21.416;2023-02-19T06:21:30;8.70;;;3.60;;
35306;SDS011;21420;52.196;21.416;2023-02-19T06:23:57;13.00;;;4.50;;
35306;SDS011;21420;52.196;21.416;2023-02-19T06:26:24;12.00;;;4.20;;
35306;SDS011;21420;52.196;21.416;2023-02-19T06:28:51;9.60;;;4.50;;
35306;SDS011;21420;52.196;21.416;2023-02-19T06:31:20;12.60;;;4.70;;
35306;SDS011;21420;52.196;21.416;2023-02-19T06:33:49;10.30;;;4.20;;
35306;SDS011;21420;52.196;21.416;2023-02-19T06:36:17;10.80;;;4.60;;
35306;SDS011;21420;52.196;21.416;2023-02-19T06:38:45;11.80;;;5.80;;
35306;SDS011;21420;52.196;21.416;2023-02-19T06:41:12;11.00;;;4.70;;
35306;SDS011;21420;52.196;21.416;2023-02-19T06:43:40;11.20;;;5.80;;
35306;SDS011;21420;52.196;21.416;2023-02-19T06:46:09;9.70;;;5.60;;
35306;SDS011;21420;52.196;21.416;2023-02-19T06:48:37;8.80;;;5.10;;
35306;SDS011;21420;52.196;21.416;2023-02-19T06:51:05;11.50;;;5.30;;
35306;SDS011;21420;52.196;21.416;2023-02-19T06:53:33;12.30;;;5.10;;
35306;SDS011;21420;52.196;21.416;2023-02-19T06:58:52;11.60;;;5.70;;
35306;SDS011;21420;52.196;21.416;2023-02-19T07:01:21;13.20;;;5.70;;
35306;SDS011;21420;52.196;21.416;2023-02-19T07:03:52;12.30;;;5.50;;
35306;SDS011;21420;52.196;21.416;2023-02-19T07:06:19;17.90;;;5.70;;
35306;SDS011;21420;52.196;21.416;2023-02-19T07:08:48;11.00;;;5.90;;
35306;SDS011;21420;52.196;21.416;2023-02-19T07:11:16;12.00;;;6.10;;
35306;SDS011;21420;52.196;21.416;2023-02-19T07:13:44;13.30;;;6.20;;
35306;SDS011;21420;52.196;21.416;2023-02-19T07:16:11;12.00;;;6.10;;
35306;SDS011;21420;52.196;21.416;2023-02-19T07:18:39;15.40;;;6.60;;
35306;SDS011;21420;52.196;21.416;2023-02-19T07:21:07;12.60;;;5.90;;
35306;SDS011;21420;52.196;21.416;2023-02-19T07:23:37;16.10;;;7.10;;
35306;SDS011;21420;52.196;21.416;2023-02-19T07:26:07;16.30;;;6.80;;
35306;SDS011;21420;52.196;21.416;2023-02-19T07:28:35;17.60;;;7.30;;
35306;SDS011;21420;52.196;21.416;2023-02-19T07:31:02;13.80;;;5.80;;
35306;SDS011;21420;52.196;21.416;2023-02-19T07:33:30;13.70;;;6.00;;
35306;SDS011;21420;52.196;21.416;2023-02-19T07:35:57;10.10;;;5.50;;
35306;SDS011;21420;52.196;21.416;2023-02-19T07:38:24;12.70;;;5.80;;
35306;SDS011;21420;52.196;21.416;2023-02-19T07:40:52;15.30;;;6.10;;
35306;SDS011;21420;52.196;21.416;2023-02-19T07:43:21;12.90;;;5.50;;
35306;SDS011;21420;52.196;21.416;2023-02-19T07:45:49;13.60;;;5.60;;
35306;SDS011;21420;52.196;21.416;2023-02-19T07:48:16;10.30;;;5.80;;
35306;SDS011;21420;52.196;21.416;2023-02-19T07:50:50;12.30;;;6.10;;
35306;SDS011;21420;52.196;21.416;2023-02-19T07:53:18;12.40;;;5.40;;
35306;SDS011;21420;52.196;21.416;2023-02-19T07:55:45;12.90;;;5.90;;
35306;SDS011;21420;52.196;21.416;2023-02-19T07:58:12;15.20;;;6.60;;
35306;SDS011;21420;52.196;21.416;2023-02-19T08:00:42;11.80;;;6.20;;
35306;SDS011;21420;52.196;21.416;2023-02-19T08:03:09;10.40;;;5.20;;
35306;SDS011;21420;52.196;21.416;2023-02-19T08:05:37;15.00;;;7.00;;
35306;SDS011;21420;52.196;21.416;2023-02-19T08:08:07;11.60;;;5.40;;
35306;SDS011;21420;52.196;21.416;2023-02-19T08:10:35;12.80;;;6.10;;
35306;SDS011;21420;52.196;21.416;2023-02-19T08:13:21;13.50;;;6.40;;
35306;SDS011;21420;52.196;21.416;2023-02-19T08:15:48;18.50;;;6.50;;
35306;SDS011;21420;52.196;21.416;2023-02-19T08:18:46;11.40;;;5.90;;
35306;SDS011;21420;52.196;21.416;2023-02-19T08:21:13;11.30;;;5.90;;
35306;SDS011;21420;52.196;21.416;2023-02-19T08:26:11;12.00;;;6.00;;
35306;SDS011;21420;52.196;21.416;2023-02-19T08:28:39;11.30;;;6.00;;
35306;SDS011;21420;52.196;21.416;2023-02-19T08:31:07;11.70;;;7.00;;
35306;SDS011;21420;52.196;21.416;2023-02-19T08:33:35;16.10;;;6.80;;
35306;SDS011;21420;52.196;21.416;2023-02-19T08:36:04;15.80;;;6.90;;
35306;SDS011;21420;52.196;21.416;2023-02-19T08:38:33;14.30;;;6.70;;
35306;SDS011;21420;52.196;21.416;2023-02-19T08:41:02;10.60;;;5.70;;
35306;SDS011;21420;52.196;21.416;2023-02-19T08:43:34;10.40;;;6.60;;
35306;SDS011;21420;52.196;21.416;2023-02-19T08:46:01;15.60;;;6.80;;
35306;SDS011;21420;52.196;21.416;2023-02-19T08:48:29;13.50;;;6.30;;
35306;SDS011;21420;52.196;21.416;2023-02-19T08:50:56;13.20;;;6.60;;
35306;SDS011;21420;52.196;21.416;2023-02-19T08:53:30;13.70;;;6.90;;
35306;SDS011;21420;52.196;21.416;2023-02-19T08:55:57;19.90;;;8.10;;
35306;SDS011;21420;52.196;21.416;2023-02-19T08:58:24;17.70;;;7.00;;
35306;SDS011;21420;52.196;21.416;2023-02-19T09:00:51;11.80;;;6.00;;
35306;SDS011;21420;52.196;21.416;2023-02-19T09:03:18;15.20;;;6.70;;
35306;SDS011;21420;52.196;21.416;2023-02-19T09:05:45;15.50;;;7.00;;
35306;SDS011;21420;52.196;21.416;2023-02-19T09:08:13;14.00;;;6.80;;
35306;SDS011;21420;52.196;21.416;2023-02-19T09:10:41;11.10;;;6.10;;
35306;SDS011;21420;52.196;21.416;2023-02-19T09:13:08;14.50;;;7.10;;
35306;SDS011;21420;52.196;21.416;2023-02-19T09:15:38;16.00;;;7.00;;
35306;SDS011;21420;52.196;21.416;2023-02-19T09:20:32;13.50;;;6.90;;
35306;SDS011;21420;52.196;21.416;2023-02-19T09:22:59;13.90;;;6.70;;
35306;SDS011;21420;52.196;21.416;2023-02-19T09:25:26;14.60;;;7.10;;
35306;SDS011;21420;52.196;21.416;2023-02-19T09:27:54;11.30;;;6.30;;
35306;SDS011;21420;52.196;21.416;2023-02-19T09:30:21;15.30;;;5.90;;
35306;SDS011;21420;52.196;21.416;2023-02-19T09:32:48;15.90;;;6.40;;
35306;SDS011;21420;52.196;21.416;2023-02-19T09:35:16;10.40;;;5.90;;
35306;SDS011;21420;52.196;21.416;2023-02-19T09:37:43;11.30;;;5.90;;
35306;SDS011;21420;52.196;21.416;2023-02-19T09:40:10;9.40;;;6.00;;
35306;SDS011;21420;52.196;21.416;2023-02-19T09:42:38;11.40;;;6.90;;
35306;SDS011;21420;52.196;21.416;2023-02-19T09:45:09;15.40;;;6.60;;
35306;SDS011;21420;52.196;21.416;2023-02-19T09:47:42;10.60;;;6.10;;
35306;SDS011;21420;52.196;21.416;2023-02-19T09:50:11;9.80;;;6.40;;
35306;SDS011;21420;52.196;21.416;2023-02-19T09:55:30;12.70;;;5.60;;
35306;SDS011;21420;52.196;21.416;2023-02-19T09:58:16;14.20;;;5.60;;
35306;SDS011;21420;52.196;21.416;2023-02-19T10:00:51;10.00;;;5.20;;
35306;SDS011;21420;52.196;21.416;2023-02-19T10:05:58;13.40;;;6.40;;
35306;SDS011;21420;52.196;21.416;2023-02-19T10:08:29;9.70;;;4.70;;
35306;SDS011;21420;52.196;21.416;2023-02-19T10:10:58;8.90;;;5.50;;
35306;SDS011;21420;52.196;21.416;2023-02-19T10:13:29;8.60;;;5.10;;
35306;SDS011;21420;52.196;21.416;2023-02-19T10:16:01;10.20;;;4.50;;
35306;SDS011;21420;52.196;21.416;2023-02-19T10:21:01;8.60;;;3.90;;
35306;SDS011;21420;52.196;21.416;2023-02-19T10:23:28;10.00;;;3.90;;
35306;SDS011;21420;52.196;21.416;2023-02-19T10:25:56;10.10;;;5.20;;
35306;SDS011;21420;52.196;21.416;2023-02-19T10:28:26;9.00;;;4.40;;
35306;SDS011;21420;52.196;21.416;2023-02-19T10:30:57;7.30;;;4.30;;
35306;SDS011;21420;52.196;21.416;2023-02-19T10:33:26;6.20;;;4.50;;
35306;SDS011;21420;52.196;21.416;2023-02-19T10:38:25;8.70;;;4.30;;
35306;SDS011;21420;52.196;21.416;2023-02-19T10:40:59;8.40;;;4.40;;
35306;SDS011;21420;52.196;21.416;2023-02-19T10:46:23;11.10;;;5.10;;
35306;SDS011;21420;52.196;21.416;2023-02-19T10:51:38;11.20;;;4.90;;
35306;SDS011;21420;52.196;21.416;2023-02-19T10:56:52;9.60;;;4.80;;
35306;SDS011;21420;52.196;21.416;2023-02-19T10:59:28;10.40;;;5.60;;
35306;SDS011;21420;52.196;21.416;2023-02-19T11:01:59;10.80;;;4.70;;
35306;SDS011;21420;52.196;21.416;2023-02-19T11:04:34;7.20;;;4.40;;
35306;SDS011;21420;52.196;21.416;2023-02-19T11:07:07;7.80;;;4.60;;
35306;SDS011;21420;52.196;21.416;2023-02-19T11:09:41;8.80;;;4.00;;
35306;SDS011;21420;52.196;21.416;2023-02-19T11:12:21;10.10;;;4.30;;
35306;SDS011;21420;52.196;21.416;2023-02-19T11:17:24;13.00;;;4.70;;
35306;SDS011;21420;52.196;21.416;2023-02-19T11:19:54;7.70;;;4.60;;
35306;SDS011;21420;52.196;21.416;2023-02-19T11:22:37;12.50;;;5.20;;
35306;SDS011;21420;52.196;21.416;2023-02-19T11:27:35;9.80;;;5.40;;
35306;SDS011;21420;52.196;21.416;2023-02-19T11:30:34;11.80;;;4.40;;
35306;SDS011;21420;52.196;21.416;2023-02-19T11:35:45;10.30;;;5.20;;
35306;SDS011;21420;52.196;21.416;2023-02-19T11:38:15;10.20;;;5.00;;
35306;SDS011;21420;52.196;21.416;2023-02-19T11:40:53;6.70;;;3.90;;
35306;SDS011;21420;52.196;21.416;2023-02-19T11:46:13;16.80;;;4.50;;
35306;SDS011;21420;52.196;21.416;2023-02-19T12:00:16;6.70;;;3.70;;
35306;SDS011;21420;52.196;21.416;2023-02-19T12:05:58;9.40;;;4.50;;
35306;SDS011;21420;52.196;21.416;2023-02-19T12:08:47;13.00;;;4.30;;
35306;SDS011;21420;52.196;21.416;2023-02-19T12:11:41;9.40;;;4.70;;
35306;SDS011;21420;52.196;21.416;2023-02-19T12:24:20;9.30;;;3.70;;
35306;SDS011;21420;52.196;21.416;2023-02-19T12:30:15;10.20;;;4.00;;
35306;SDS011;21420;52.196;21.416;2023-02-19T12:35:52;8.90;;;3.80;;
35306;SDS011;21420;52.196;21.416;2023-02-19T12:38:31;7.60;;;3.20;;
35306;SDS011;21420;52.196;21.416;2023-02-19T12:43:36;10.70;;;4.60;;
35306;SDS011;21420;52.196;21.416;2023-02-19T12:46:07;12.50;;;4.70;;
35306;SDS011;21420;52.196;21.416;2023-02-19T12:49:09;10.10;;;3.80;;
35306;SDS011;21420;52.196;21.416;2023-02-19T12:56:45;6.70;;;3.50;;
35306;SDS011;21420;52.196;21.416;2023-02-19T12:59:23;6.30;;;3.60;;
35306;SDS011;21420;52.196;21.416;2023-02-19T13:07:32;9.30;;;3.40;;
35306;SDS011;21420;52.196;21.416;2023-02-19T13:10:07;7.50;;;3.70;;
35306;SDS011;21420;52.196;21.416;2023-02-19T13:12:48;6.20;;;3.00;;
35306;SDS011;21420;52.196;21.416;2023-02-19T13:15:20;8.00;;;3.10;;
35306;SDS011;21420;52.196;21.416;2023-02-19T13:17:57;6.60;;;3.30;;
35306;SDS011;21420;52.196;21.416;2023-02-19T13:20:31;6.70;;;3.40;;
35306;SDS011;21420;52.196;21.416;2023-02-19T13:26:00;7.60;;;3.80;;
35306;SDS011;21420;52.196;21.416;2023-02-19T13:29:02;10.00;;;3.40;;
35306;SDS011;21420;52.196;21.416;2023-02-19T13:31:58;6.00;;;2.60;;
35306;SDS011;21420;52.196;21.416;2023-02-19T13:37:24;7.30;;;2.90;;
35306;SDS011;21420;52.196;21.416;2023-02-19T13:39:53;6.20;;;2.90;;
35306;SDS011;21420;52.196;21.416;2023-02-19T13:42:33;7.00;;;3.00;;
35306;SDS011;21420;52.196;21.416;2023-02-19T13:45:03;9.20;;;3.10;;
35306;SDS011;21420;52.196;21.416;2023-02-19T13:50:23;6.40;;;3.60;;
35306;SDS011;21420;52.196;21.416;2023-02-19T13:52:52;8.80;;;3.80;;
35306;SDS011;21420;52.196;21.416;2023-02-19T13:58:33;8.80;;;4.20;;
35306;SDS011;21420;52.196;21.416;2023-02-19T14:01:06;10.30;;;3.90;;
35306;SDS011;21420;52.196;21.416;2023-02-19T14:06:12;9.80;;;3.50;;
35306;SDS011;21420;52.196;21.416;2023-02-19T14:14:51;8.20;;;3.80;;
35306;SDS011;21420;52.196;21.416;2023-02-19T14:17:01;5.80;;;3.40;;
35306;SDS011;21420;52.196;21.416;2023-02-19T14:25:29;10.40;;;4.30;;
35306;SDS011;21420;52.196;21.416;2023-02-19T14:28:17;9.60;;;3.90;;
35306;SDS011;21420;52.196;21.416;2023-02-19T14:30:57;7.70;;;2.80;;
35306;SDS011;21420;52.196;21.416;2023-02-19T14:33:34;9.90;;;3.60;;
35306;SDS011;21420;52.196;21.416;2023-02-19T14:36:16;9.70;;;4.10;;
35306;SDS011;21420;52.196;21.416;2023-02-19T14:38:54;8.50;;;3.00;;
35306;SDS011;21420;52.196;21.416;2023-02-19T14:41:23;10.50;;;4.10;;
35306;SDS011;21420;52.196;21.416;2023-02-19T14:43:54;7.90;;;3.40;;
35306;SDS011;21420;52.196;21.416;2023-02-19T14:46:40;7.40;;;3.60;;
35306;SDS011;21420;52.196;21.416;2023-02-19T14:52:30;8.90;;;3.70;;
35306;SDS011;21420;52.196;21.416;2023-02-19T14:55:12;7.30;;;3.60;;
35306;SDS011;21420;52.196;21.416;2023-02-19T14:57:46;12.90;;;4.40;;
35306;SDS011;21420;52.196;21.416;2023-02-19T15:02:48;11.10;;;4.10;;
35306;SDS011;21420;52.196;21.416;2023-02-19T15:05:17;9.00;;;4.60;;
35306;SDS011;21420;52.196;21.416;2023-02-19T15:07:49;10.30;;;4.30;;
35306;SDS011;21420;52.196;21.416;2023-02-19T15:10:18;9.30;;;4.50;;
35306;SDS011;21420;52.196;21.416;2023-02-19T15:13:02;10.00;;;3.80;;
35306;SDS011;21420;52.196;21.416;2023-02-19T15:15:32;8.30;;;3.40;;
35306;SDS011;21420;52.196;21.416;2023-02-19T15:18:06;7.30;;;3.80;;
35306;SDS011;21420;52.196;21.416;2023-02-19T15:20:35;12.20;;;3.80;;
35306;SDS011;21420;52.196;21.416;2023-02-19T15:23:04;16.30;;;4.30;;
35306;SDS011;21420;52.196;21.416;2023-02-19T15:25:33;11.00;;;3.90;;
35306;SDS011;21420;52.196;21.416;2023-02-19T15:33:25;11.50;;;3.10;;
35306;SDS011;21420;52.196;21.416;2023-02-19T15:35:54;5.70;;;3.00;;
35306;SDS011;21420;52.196;21.416;2023-02-19T15:38:23;10.90;;;3.00;;
35306;SDS011;21420;52.196;21.416;2023-02-19T15:40:51;9.50;;;3.50;;
35306;SDS011;21420;52.196;21.416;2023-02-19T15:46:41;7.70;;;3.70;;
35306;SDS011;21420;52.196;21.416;2023-02-19T15:49:15;5.50;;;3.50;;
35306;SDS011;21420;52.196;21.416;2023-02-19T15:51:49;6.40;;;3.40;;
35306;SDS011;21420;52.196;21.416;2023-02-19T15:56:57;10.80;;;3.70;;
35306;SDS011;21420;52.196;21.416;2023-02-19T15:59:50;8.40;;;3.80;;
35306;SDS011;21420;52.196;21.416;2023-02-19T16:02:23;8.80;;;3.70;;
35306;SDS011;21420;52.196;21.416;2023-02-19T16:04:53;6.70;;;3.40;;
35306;SDS011;21420;52.196;21.416;2023-02-19T16:07:30;5.40;;;3.30;;
35306;SDS011;21420;52.196;21.416;2023-02-19T16:12:32;5.60;;;2.60;;
35306;SDS011;21420;52.196;21.416;2023-02-19T16:15:10;4.50;;;2.60;;
35306;SDS011;21420;52.196;21.416;2023-02-19T16:17:40;7.50;;;2.80;;
35306;SDS011;21420;52.196;21.416;2023-02-19T16:23:12;8.10;;;3.20;;
35306;SDS011;21420;52.196;21.416;2023-02-19T16:25:42;4.70;;;2.40;;
35306;SDS011;21420;52.196;21.416;2023-02-19T16:28:13;5.00;;;2.90;;
35306;SDS011;21420;52.196;21.416;2023-02-19T16:30:54;7.40;;;3.90;;
35306;SDS011;21420;52.196;21.416;2023-02-19T16:36:15;6.40;;;3.90;;
35306;SDS011;21420;52.196;21.416;2023-02-19T16:46:46;7.50;;;4.10;;
35306;SDS011;21420;52.196;21.416;2023-02-19T16:49:15;11.70;;;5.40;;
35306;SDS011;21420;52.196;21.416;2023-02-19T16:51:43;9.90;;;5.30;;
35306;SDS011;21420;52.196;21.416;2023-02-19T16:54:11;10.60;;;4.50;;
35306;SDS011;21420;52.196;21.416;2023-02-19T16:56:38;11.50;;;4.70;;
35306;SDS011;21420;52.196;21.416;2023-02-19T16:59:05;12.50;;;5.30;;
35306;SDS011;21420;52.196;21.416;2023-02-19T17:01:34;10.20;;;4.10;;
35306;SDS011;21420;52.196;21.416;2023-02-19T17:04:03;7.20;;;4.10;;
35306;SDS011;21420;52.196;21.416;2023-02-19T17:06:34;9.40;;;4.20;;
35306;SDS011;21420;52.196;21.416;2023-02-19T17:09:04;9.50;;;4.60;;
35306;SDS011;21420;52.196;21.416;2023-02-19T17:11:32;12.90;;;5.20;;
35306;SDS011;21420;52.196;21.416;2023-02-19T17:14:00;11.80;;;4.40;;
35306;SDS011;21420;52.196;21.416;2023-02-19T17:16:29;10.10;;;4.60;;
35306;SDS011;21420;52.196;21.416;2023-02-19T17:19:11;10.00;;;4.90;;
35306;SDS011;21420;52.196;21.416;2023-02-19T17:21:40;11.20;;;4.70;;
35306;SDS011;21420;52.196;21.416;2023-02-19T17:24:08;9.50;;;4.50;;
35306;SDS011;21420;52.196;21.416;2023-02-19T17:26:35;11.90;;;4.50;;
35306;SDS011;21420;52.196;21.416;2023-02-19T17:29:03;9.30;;;4.40;;
35306;SDS011;21420;52.196;21.416;2023-02-19T17:31:32;10.50;;;4.30;;
35306;SDS011;21420;52.196;21.416;2023-02-19T17:33:59;15.30;;;5.10;;
35306;SDS011;21420;52.196;21.416;2023-02-19T17:36:28;5.50;;;3.50;;
35306;SDS011;21420;52.196;21.416;2023-02-19T17:38:59;5.40;;;2.80;;
35306;SDS011;21420;52.196;21.416;2023-02-19T17:41:28;8.80;;;3.10;;
35306;SDS011;21420;52.196;21.416;2023-02-19T17:43:55;7.90;;;3.30;;
35306;SDS011;21420;52.196;21.416;2023-02-19T17:46:23;9.40;;;3.70;;